createdAt,value
2019-05-05T00:00:00.313Z,95.45
2019-05-05T00:02:00.317Z,95.26
2019-05-05T00:03:00.328Z,95.36
2019-05-05T00:04:15.006Z,95.65
2019-05-05T00:05:00.363Z,95.45
2019-05-05T00:06:00.375Z,95.74
2019-05-05T00:07:00.390Z,96.12
2019-05-05T00:08:00.404Z,96.5
2019-05-05T00:09:00.427Z,96.31
2019-05-05T00:10:00.435Z,96.12
2019-05-05T00:11:00.502Z,96.12
2019-05-05T00:12:00.467Z,96.69
2019-05-05T00:13:00.482Z,96.69
2019-05-05T00:14:00.498Z,96.45
2019-05-05T00:15:00.511Z,96.83
2019-05-05T00:17:00.551Z,96.92
2019-05-05T00:18:00.559Z,97.02
2019-05-05T00:19:00.573Z,97.3
2019-05-05T00:20:15.252Z,97.49
2019-05-05T00:21:00.606Z,97.3
2019-05-05T00:22:00.621Z,97.3
2019-05-05T00:23:00.639Z,97.4
2019-05-05T00:24:00.649Z,97.49
2019-05-05T00:25:00.664Z,97.78
2019-05-05T00:26:00.681Z,97.87
2019-05-05T00:27:00.698Z,97.68
2019-05-05T00:28:00.710Z,97.87
2019-05-05T00:29:00.727Z,97.78
2019-05-05T00:30:00.742Z,97.87
2019-05-05T00:31:00.757Z,97.87
2019-05-05T00:33:00.790Z,97.49
2019-05-05T00:34:00.802Z,98.06
2019-05-05T00:35:15.481Z,98.16
2019-05-05T00:36:00.833Z,98.25
2019-05-05T00:37:00.599Z,98.06
2019-05-05T00:38:00.869Z,98.16
2019-05-05T00:39:00.880Z,98.63
2019-05-05T00:40:00.894Z,98.72
2019-05-05T00:41:00.909Z,98.91
2019-05-05T00:42:00.924Z,98.82
2019-05-05T00:43:00.940Z,98.91
2019-05-05T00:44:00.960Z,99.01
2019-05-05T00:45:00.969Z,98.63
2019-05-05T00:46:00.996Z,98.44
2019-05-05T00:47:01.015Z,98.91
2019-05-05T00:48:01.014Z,98.82
2019-05-05T00:49:01.031Z,98.82
2019-05-05T00:50:01.045Z,98.82
2019-05-05T00:51:01.061Z,98.82
2019-05-05T00:52:01.076Z,98.82
2019-05-05T00:53:01.091Z,98.63
2019-05-05T00:54:01.106Z,99.01
2019-05-05T00:55:01.121Z,98.82
2019-05-05T00:56:01.138Z,98.63
2019-05-05T00:57:01.151Z,99.67
2019-05-05T00:58:01.167Z,99.39
2019-05-05T00:59:01.180Z,99.2
2019-05-05T01:00:01.196Z,99.1
2019-05-05T01:01:01.211Z,99.48
2019-05-05T01:03:01.241Z,99.1
2019-05-05T01:04:01.258Z,99.29
2019-05-05T01:05:01.272Z,99.67
2019-05-05T01:06:01.290Z,99.99
2019-05-05T01:07:15.964Z,99.99
2019-05-05T01:08:01.073Z,99.96
2019-05-05T01:09:01.331Z,99.67
2019-05-05T01:10:01.347Z,99.96
2019-05-05T01:11:01.361Z,99.99
2019-05-05T01:12:01.381Z,99.99
2019-05-05T01:13:01.393Z,99.99
2019-05-05T01:14:01.406Z,99.99
2019-05-05T01:15:01.431Z,99.99
2019-05-05T01:16:01.436Z,99.99
2019-05-05T01:17:01.450Z,99.99
2019-05-05T01:18:04.789Z,99.99
2019-05-05T01:19:01.484Z,99.99
2019-05-05T01:20:06.878Z,99.99
2019-05-05T01:22:01.537Z,99.99
2019-05-05T01:23:16.203Z,99.99
2019-05-05T01:24:01.565Z,99.99
2019-05-05T01:25:01.572Z,99.99
2019-05-05T01:26:01.587Z,99.99
2019-05-05T01:27:01.604Z,99.99
2019-05-05T01:28:01.613Z,99.99
2019-05-05T01:29:01.630Z,99.99
2019-05-05T01:30:01.644Z,99.99
2019-05-05T01:31:01.665Z,99.99
2019-05-05T01:32:01.676Z,99.99
2019-05-05T01:33:01.689Z,99.99
2019-05-05T01:34:01.707Z,99.99
2019-05-05T01:35:01.719Z,99.99
2019-05-05T01:36:01.739Z,99.99
2019-05-05T01:37:01.749Z,99.99
2019-05-05T01:38:01.516Z,99.99
2019-05-05T01:39:16.440Z,99.99
2019-05-05T01:40:01.802Z,99.99
2019-05-05T01:41:01.807Z,99.99
2019-05-05T01:42:01.822Z,99.99
2019-05-05T01:43:01.838Z,99.99
2019-05-05T01:44:01.852Z,99.99
2019-05-05T01:45:01.871Z,99.99
2019-05-05T01:46:01.882Z,99.99
2019-05-05T01:47:01.896Z,99.99
2019-05-05T01:48:01.912Z,99.99
2019-05-05T01:49:01.926Z,99.99
2019-05-05T01:50:14.918Z,99.99
2019-05-05T01:52:04.125Z,99.99
2019-05-05T01:53:01.994Z,99.99
2019-05-05T01:54:02.000Z,99.99
2019-05-05T01:55:16.678Z,99.99
2019-05-05T01:56:02.031Z,99.99
2019-05-05T01:57:02.049Z,99.99
2019-05-05T01:58:02.059Z,99.99
2019-05-05T01:59:02.073Z,99.99
2019-05-05T02:00:04.039Z,99.99
2019-05-05T02:01:02.104Z,99.99
2019-05-05T02:02:04.106Z,99.99
2019-05-05T02:03:02.135Z,99.99
2019-05-05T02:04:02.156Z,99.99
2019-05-05T02:05:04.007Z,99.99
2019-05-05T02:06:02.177Z,99.99
2019-05-05T02:07:02.191Z,99.99
2019-05-05T02:08:02.212Z,99.99
2019-05-05T02:09:02.228Z,99.99
2019-05-05T02:10:16.900Z,99.99
2019-05-05T02:11:02.257Z,99.99
2019-05-05T02:12:02.267Z,99.99
2019-05-05T02:13:04.377Z,99.99
2019-05-05T02:14:02.296Z,99.99
2019-05-05T02:15:04.068Z,99.99
2019-05-05T02:16:04.331Z,99.99
2019-05-05T02:17:02.340Z,99.99
2019-05-05T02:18:04.270Z,99.99
2019-05-05T02:20:02.384Z,99.99
2019-05-05T02:21:02.402Z,99.99
2019-05-05T02:22:02.438Z,99.99
2019-05-05T02:24:02.448Z,99.99
2019-05-05T02:25:04.202Z,99.99
2019-05-05T02:26:04.447Z,99.99
2019-05-05T02:27:02.489Z,99.99
2019-05-05T02:28:04.214Z,99.99
2019-05-05T02:29:04.676Z,99.99
2019-05-05T02:30:05.692Z,99.99
2019-05-05T02:31:05.308Z,99.99
2019-05-05T02:32:05.735Z,99.99
2019-05-05T02:33:02.579Z,99.99
2019-05-05T02:34:05.142Z,99.99
2019-05-05T02:35:02.620Z,99.99
2019-05-05T02:36:05.117Z,99.99
2019-05-05T02:37:05.159Z,99.99
2019-05-05T02:38:02.662Z,99.99
2019-05-05T02:39:05.090Z,99.99
2019-05-05T02:40:09.445Z,99.99
2019-05-05T02:42:17.369Z,99.99
2019-05-05T02:43:05.224Z,99.99
2019-05-05T02:44:05.026Z,99.99
2019-05-05T02:45:05.343Z,99.99
2019-05-05T02:46:05.211Z,99.99
2019-05-05T02:47:04.692Z,99.99
2019-05-05T02:49:05.279Z,99.99
2019-05-05T02:50:05.175Z,99.99
2019-05-05T02:51:06.798Z,99.99
2019-05-05T02:52:04.827Z,99.99
2019-05-05T02:53:03.998Z,99.99
2019-05-05T02:54:04.384Z,99.99
2019-05-05T02:55:04.060Z,99.99
2019-05-05T02:56:04.141Z,99.99
2019-05-05T02:57:04.602Z,99.99
2019-05-05T02:58:17.602Z,99.99
2019-05-05T02:59:04.294Z,99.99
2019-05-05T03:00:04.459Z,99.99
2019-05-05T03:01:04.861Z,99.99
2019-05-05T03:02:04.259Z,99.99
2019-05-05T03:03:04.415Z,99.99
2019-05-05T03:04:03.711Z,99.99
2019-05-05T03:05:04.155Z,99.99
2019-05-05T03:07:04.668Z,99.99
2019-05-05T03:08:04.797Z,99.99
2019-05-05T03:09:04.419Z,99.99
2019-05-05T03:10:03.703Z,99.99
2019-05-05T03:11:03.871Z,99.99
2019-05-05T03:12:04.730Z,99.99
2019-05-05T03:13:04.873Z,99.99
2019-05-05T03:14:17.834Z,99.99
2019-05-05T03:15:04.124Z,99.99
2019-05-05T03:16:03.722Z,99.99
2019-05-05T03:17:04.207Z,99.99
2019-05-05T03:18:04.124Z,99.99
2019-05-05T03:19:03.581Z,99.99
2019-05-05T03:20:04.077Z,99.99
2019-05-05T03:21:09.106Z,99.99
2019-05-05T03:22:03.673Z,99.99
2019-05-05T03:23:04.162Z,99.99
2019-05-05T03:24:03.754Z,99.99
2019-05-05T03:25:04.597Z,99.99
2019-05-05T03:26:03.887Z,99.99
2019-05-05T03:28:04.392Z,99.99
2019-05-05T03:29:04.730Z,99.99
2019-05-05T03:30:18.075Z,99.99
2019-05-05T03:31:04.960Z,99.99
2019-05-05T03:32:05.461Z,99.99
2019-05-05T03:33:05.361Z,99.99
2019-05-05T03:34:05.821Z,99.99
2019-05-05T03:35:04.245Z,99.99
2019-05-05T03:36:03.600Z,99.99
2019-05-05T03:37:04.196Z,99.99
2019-05-05T03:38:03.911Z,99.99
2019-05-05T03:40:04.241Z,99.99
2019-05-05T03:41:03.660Z,99.99
2019-05-05T03:44:04.689Z,99.99
2019-05-05T03:45:18.281Z,99.99
2019-05-05T03:46:04.383Z,99.99
2019-05-05T03:47:05.951Z,99.99
2019-05-05T03:48:04.586Z,99.99
2019-05-05T03:49:04.772Z,99.99
2019-05-05T03:50:04.306Z,99.99
2019-05-05T03:51:15.294Z,99.99
2019-05-05T03:52:04.805Z,99.99
2019-05-05T03:53:04.900Z,99.99
2019-05-05T03:54:04.391Z,99.99
2019-05-05T03:55:06.163Z,99.99
2019-05-05T03:56:03.972Z,99.99
2019-05-05T03:57:05.899Z,99.99
2019-05-05T03:58:04.150Z,99.99
2019-05-05T03:59:04.835Z,99.99
2019-05-05T04:00:04.390Z,99.99
2019-05-05T04:01:04.289Z,99.99
2019-05-05T04:02:04.057Z,99.99
2019-05-05T04:03:04.316Z,99.99
2019-05-05T04:04:05.772Z,99.99
2019-05-05T04:05:04.090Z,99.99
2019-05-05T04:06:04.412Z,99.99
2019-05-05T04:07:04.679Z,99.99
2019-05-05T04:08:06.307Z,99.99
2019-05-05T04:09:04.314Z,99.99
2019-05-05T04:10:06.079Z,99.99
2019-05-05T04:11:06.272Z,99.99
2019-05-05T04:12:04.505Z,99.99
2019-05-05T04:13:04.619Z,99.99
2019-05-05T04:14:06.024Z,99.99
2019-05-05T04:15:06.059Z,99.99
2019-05-05T04:16:04.112Z,99.99
2019-05-05T04:17:18.744Z,99.99
2019-05-05T04:18:06.360Z,99.99
2019-05-05T04:19:06.048Z,99.99
2019-05-05T04:20:06.172Z,99.99
2019-05-05T04:21:06.377Z,99.99
2019-05-05T04:22:04.335Z,99.99
2019-05-05T04:23:06.215Z,99.99
2019-05-05T04:24:06.396Z,99.99
2019-05-05T04:25:04.664Z,99.99
2019-05-05T04:26:06.243Z,99.99
2019-05-05T04:27:06.427Z,99.99
2019-05-05T04:28:06.134Z,99.99
2019-05-05T04:29:07.551Z,99.99
2019-05-05T04:30:06.178Z,99.99
2019-05-05T04:31:06.588Z,99.99
2019-05-05T04:32:04.674Z,99.99
2019-05-05T04:33:18.982Z,99.99
2019-05-05T04:34:06.575Z,99.99
2019-05-05T04:35:06.104Z,99.99
2019-05-05T04:36:06.333Z,99.99
2019-05-05T04:37:06.473Z,99.99
2019-05-05T04:38:04.871Z,99.99
2019-05-05T04:39:06.187Z,99.99
2019-05-05T04:40:06.516Z,99.99
2019-05-05T04:41:05.967Z,99.99
2019-05-05T04:42:04.848Z,99.99
2019-05-05T04:43:06.351Z,99.99
2019-05-05T04:44:06.418Z,99.99
2019-05-05T04:45:06.586Z,99.99
2019-05-05T04:46:04.608Z,99.99
2019-05-05T04:47:06.312Z,99.99
2019-05-05T04:49:19.219Z,99.99
2019-05-05T04:50:06.436Z,99.99
2019-05-05T04:51:04.794Z,99.99
2019-05-05T04:52:06.556Z,99.99
2019-05-05T04:53:06.939Z,99.99
2019-05-05T04:54:06.236Z,96.22
2019-05-05T04:55:06.302Z,91.13
2019-05-05T04:56:06.656Z,86.28
2019-05-05T04:57:06.875Z,82.51
2019-05-05T04:58:07.001Z,79.13
2019-05-05T04:59:06.241Z,77.42
2019-05-05T05:00:06.560Z,75.55
2019-05-05T05:01:07.065Z,73.39
2019-05-05T05:02:06.469Z,70.67
2019-05-05T05:03:06.874Z,69.08
2019-05-05T05:04:06.158Z,68.38
2019-05-05T05:05:19.512Z,66.31
2019-05-05T05:06:06.571Z,64.72
2019-05-05T05:07:06.977Z,63.6
2019-05-05T05:08:06.200Z,61.82
2019-05-05T05:09:06.473Z,61.25
2019-05-05T05:11:06.118Z,59.66
2019-05-05T05:12:06.474Z,58.61
2019-05-05T05:13:07.028Z,58.7
2019-05-05T05:14:06.337Z,57.65
2019-05-05T05:15:06.776Z,55.51
2019-05-05T05:16:06.975Z,54.77
2019-05-05T05:17:05.938Z,54.9
2019-05-05T05:18:06.559Z,54.93
2019-05-05T05:19:06.754Z,53.36
2019-05-05T05:20:19.872Z,52.87
2019-05-05T05:21:06.446Z,53.78
2019-05-05T05:22:07.452Z,53.97
2019-05-05T05:23:06.097Z,53.88
2019-05-05T05:24:06.471Z,55.74
2019-05-05T05:25:06.937Z,56.12
2019-05-05T05:26:07.441Z,55.67
2019-05-05T05:27:07.480Z,55.64
2019-05-05T05:28:06.664Z,54.55
2019-05-05T05:29:06.983Z,53.33
2019-05-05T05:30:07.137Z,51.56
2019-05-05T05:31:06.383Z,51.37
2019-05-05T05:32:06.631Z,50.6
2019-05-05T05:33:06.816Z,48.8
2019-05-05T05:34:06.827Z,48.74
2019-05-05T05:35:06.192Z,48.9
2019-05-05T05:36:06.466Z,48.44
2019-05-05T05:37:06.654Z,47.51
2019-05-05T05:38:07.141Z,46.94
2019-05-05T05:39:05.925Z,46.19
2019-05-05T05:41:06.704Z,50.15
2019-05-05T05:43:07.094Z,52.34
2019-05-05T05:44:06.089Z,51.06
2019-05-05T05:45:06.510Z,50.96
2019-05-05T05:46:06.859Z,50.56
2019-05-05T05:47:06.110Z,51.89
2019-05-05T05:48:06.577Z,53.2
2019-05-05T05:49:07.034Z,51.32
2019-05-05T05:50:06.544Z,50.58
2019-05-05T05:51:06.693Z,51.51
2019-05-05T05:52:20.744Z,50.48
2019-05-05T05:53:07.205Z,49.93
2019-05-05T05:54:06.277Z,49.67
2019-05-05T05:55:06.566Z,49.45
2019-05-05T05:56:06.837Z,49.65
2019-05-05T05:57:06.803Z,48.13
2019-05-05T05:58:07.264Z,47.22
2019-05-05T05:59:06.284Z,46.09
2019-05-05T06:00:06.531Z,46
2019-05-05T06:01:06.821Z,45.81
2019-05-05T06:02:15.572Z,46.09
2019-05-05T06:03:06.515Z,45.81
2019-05-05T06:04:06.590Z,45.71
2019-05-05T06:06:06.958Z,45.42
2019-05-05T06:07:06.633Z,44.96
2019-05-05T06:08:21.215Z,46.65
2019-05-05T06:09:06.776Z,46.81
2019-05-05T06:10:06.607Z,46.55
2019-05-05T06:11:07.010Z,45.98
2019-05-05T06:12:06.670Z,45.14
2019-05-05T06:13:06.506Z,45.42
2019-05-05T06:14:06.733Z,45.04
2019-05-05T06:15:06.760Z,44.94
2019-05-05T06:16:06.922Z,44.87
2019-05-05T06:17:06.835Z,46.53
2019-05-05T06:18:07.243Z,47.37
2019-05-05T06:19:06.887Z,48.04
2019-05-05T06:21:07.141Z,47.39
2019-05-05T06:22:06.974Z,46
2019-05-05T06:23:07.011Z,46.07
2019-05-05T06:24:23.909Z,47.58
2019-05-05T06:25:09.222Z,48.52
2019-05-05T06:26:09.507Z,48.33
2019-05-05T06:27:07.134Z,48.16
2019-05-05T06:28:07.171Z,48.23
2019-05-05T06:29:07.194Z,47.3
2019-05-05T06:30:06.980Z,46.48
2019-05-05T06:31:07.254Z,45.54
2019-05-05T06:32:07.284Z,45.45
2019-05-05T06:33:07.449Z,46.38
2019-05-05T06:34:07.348Z,48.23
2019-05-05T06:35:07.127Z,47.75
2019-05-05T06:37:07.439Z,46.09
2019-05-05T06:38:07.471Z,46.07
2019-05-05T06:39:07.503Z,45.81
2019-05-05T06:40:23.359Z,44.84
2019-05-05T06:41:07.563Z,43.57
2019-05-05T06:42:07.606Z,42.89
2019-05-05T06:43:07.629Z,43.18
2019-05-05T06:44:07.658Z,45.59
2019-05-05T06:45:07.690Z,46.53
2019-05-05T06:46:07.722Z,46.07
2019-05-05T06:47:07.754Z,46.26
2019-05-05T06:48:07.854Z,45.4
2019-05-05T06:49:07.815Z,44.77
2019-05-05T06:50:07.846Z,43.07
2019-05-05T06:51:07.878Z,43.45
2019-05-05T06:52:07.910Z,43.35
2019-05-05T06:53:07.949Z,43.08
2019-05-05T06:54:07.975Z,42.43
2019-05-05T06:55:24.447Z,43.35
2019-05-05T06:56:08.089Z,42.97
2019-05-05T06:57:08.071Z,43.26
2019-05-05T06:58:08.102Z,43.91
2019-05-05T06:59:08.137Z,44.17
2019-05-05T07:00:08.165Z,44.82
2019-05-05T07:01:08.196Z,44.56
2019-05-05T07:02:08.230Z,43.35
2019-05-05T07:03:10.295Z,42.22
2019-05-05T07:04:08.293Z,42.33
2019-05-05T07:05:08.334Z,41.66
2019-05-05T07:06:08.361Z,40.81
2019-05-05T07:07:08.147Z,41.39
2019-05-05T07:09:08.452Z,45.09
2019-05-05T07:10:08.484Z,44.9
2019-05-05T07:11:08.680Z,44.73
2019-05-05T07:12:08.298Z,45.21
2019-05-05T07:13:08.580Z,46.05
2019-05-05T07:14:08.612Z,46.6
2019-05-05T07:15:08.646Z,46.79
2019-05-05T07:16:08.675Z,46.12
2019-05-05T07:18:08.737Z,45.37
2019-05-05T07:19:08.770Z,46.24
2019-05-05T07:20:08.801Z,46.53
2019-05-05T07:21:08.840Z,45.76
2019-05-05T07:22:08.617Z,44.44
2019-05-05T07:23:08.923Z,45.86
2019-05-05T07:24:08.929Z,44.54
2019-05-05T07:25:08.960Z,44.92
2019-05-05T07:26:08.989Z,44.06
2019-05-05T07:27:24.260Z,44.06
2019-05-05T07:28:09.054Z,44.82
2019-05-05T07:29:09.085Z,42.94
2019-05-05T07:30:09.117Z,42.47
2019-05-05T07:31:09.238Z,43.21
2019-05-05T07:32:09.185Z,43.96
2019-05-05T07:33:09.212Z,43.14
2019-05-05T07:34:09.241Z,40.97
2019-05-05T07:35:09.275Z,38.97
2019-05-05T07:36:09.307Z,39.7
2019-05-05T07:37:09.343Z,40.35
2019-05-05T07:38:09.368Z,40.81
2019-05-05T07:39:09.404Z,41
2019-05-05T07:41:09.467Z,40.99
2019-05-05T07:42:09.497Z,40.81
2019-05-05T07:43:24.192Z,40.52
2019-05-05T07:44:22.248Z,40.81
2019-05-05T07:45:25.622Z,41.75
2019-05-05T07:46:09.622Z,42.21
2019-05-05T07:47:09.654Z,41
2019-05-05T07:48:09.684Z,40.41
2019-05-05T07:49:09.714Z,41.25
2019-05-05T07:50:28.244Z,40.89
2019-05-05T07:51:09.833Z,40.79
2019-05-05T07:52:10.019Z,41.17
2019-05-05T07:53:17.900Z,39.45
2019-05-05T07:54:09.888Z,38.89
2019-05-05T07:55:09.902Z,38.81
2019-05-05T07:56:10.189Z,39.28
2019-05-05T07:57:09.720Z,38.7
2019-05-05T07:58:09.995Z,38.34
2019-05-05T07:59:24.693Z,39.04
2019-05-05T08:00:10.057Z,39.62
2019-05-05T08:01:10.088Z,39.91
2019-05-05T08:02:09.871Z,39.47
2019-05-05T08:03:10.149Z,39.78
2019-05-05T08:04:10.180Z,39.2
2019-05-05T08:05:10.212Z,38.93
2019-05-05T08:06:10.247Z,37.62
2019-05-05T08:07:10.273Z,36.11
2019-05-05T08:08:10.309Z,35.08
2019-05-05T08:09:10.343Z,35.73
2019-05-05T08:10:10.364Z,36.49
2019-05-05T08:12:10.428Z,35.71
2019-05-05T08:13:10.462Z,35.42
2019-05-05T08:14:10.487Z,35.91
2019-05-05T08:15:25.183Z,36.18
2019-05-05T08:16:10.547Z,36.35
2019-05-05T08:17:10.328Z,35.39
2019-05-05T08:18:10.608Z,35.31
2019-05-05T08:19:10.638Z,35.83
2019-05-05T08:21:10.752Z,36.2
2019-05-05T08:22:10.480Z,38.95
2019-05-05T08:23:10.809Z,38.76
2019-05-05T08:24:10.793Z,39.53
2019-05-05T08:25:10.818Z,40.67
2019-05-05T08:26:10.857Z,39.35
2019-05-05T08:27:10.882Z,37.24
2019-05-05T08:28:10.911Z,36.2
2019-05-05T08:29:10.937Z,36.32
2019-05-05T08:30:25.633Z,36.41
2019-05-05T08:31:10.998Z,36.6
2019-05-05T08:32:10.777Z,36.62
2019-05-05T08:33:11.062Z,37.3
2019-05-05T08:34:11.084Z,36.62
2019-05-05T08:35:11.113Z,37.18
2019-05-05T08:36:11.142Z,38.49
2019-05-05T08:37:10.922Z,39.06
2019-05-05T08:38:11.202Z,39.14
2019-05-05T08:39:11.227Z,39.31
2019-05-05T08:40:11.255Z,39.94
2019-05-05T08:41:11.284Z,41.53
2019-05-05T08:42:11.065Z,43.04
2019-05-05T08:43:13.585Z,44.48
2019-05-05T08:44:11.372Z,43.26
2019-05-05T08:45:13.581Z,42.97
2019-05-05T08:46:11.469Z,43.8
2019-05-05T08:47:11.444Z,43.33
2019-05-05T08:48:11.470Z,43.44
2019-05-05T08:49:13.536Z,43.63
2019-05-05T08:50:13.496Z,43.44
2019-05-05T08:51:11.550Z,42.7
2019-05-05T08:52:11.580Z,41.4
2019-05-05T08:53:13.592Z,40.58
2019-05-05T08:54:11.628Z,39.91
2019-05-05T08:55:13.748Z,39.98
2019-05-05T08:56:11.693Z,38.78
2019-05-05T08:57:11.461Z,37.47
2019-05-05T08:58:11.734Z,37.08
2019-05-05T08:59:14.046Z,37.57
2019-05-05T09:00:13.764Z,37.53
2019-05-05T09:01:11.816Z,38.47
2019-05-05T09:02:26.513Z,40.35
2019-05-05T09:03:13.803Z,41.07
2019-05-05T09:04:13.956Z,41.77
2019-05-05T09:05:11.922Z,41.21
2019-05-05T09:06:13.695Z,39.26
2019-05-05T09:08:13.773Z,37.41
2019-05-05T09:09:14.141Z,37.78
2019-05-05T09:10:14.044Z,38.74
2019-05-05T09:11:13.977Z,39.01
2019-05-05T09:12:13.870Z,38.89
2019-05-05T09:13:14.040Z,39.1
2019-05-05T09:14:12.161Z,38.83
2019-05-05T09:16:14.113Z,36.68
2019-05-05T09:17:13.646Z,34.99
2019-05-05T09:18:26.930Z,34.53
2019-05-05T09:19:14.424Z,34.23
2019-05-05T09:20:13.610Z,34.99
2019-05-05T09:21:13.643Z,32.68
2019-05-05T09:22:13.943Z,32.7
2019-05-05T09:23:14.489Z,32.78
2019-05-05T09:24:13.932Z,33.44
2019-05-05T09:25:13.642Z,33.28
2019-05-05T09:26:13.768Z,32.71
2019-05-05T09:27:14.128Z,32.31
2019-05-05T09:28:14.544Z,32.51
2019-05-05T09:29:13.717Z,32.31
2019-05-05T09:31:14.121Z,32.49
2019-05-05T09:32:13.859Z,33.5
2019-05-05T09:33:14.198Z,34.98
2019-05-05T09:34:27.358Z,36.88
2019-05-05T09:35:13.851Z,37.24
2019-05-05T09:36:13.886Z,37.43
2019-05-05T09:37:14.324Z,37.84
2019-05-05T09:38:14.652Z,37.45
2019-05-05T09:39:13.759Z,38.01
2019-05-05T09:40:13.837Z,38.49
2019-05-05T09:41:14.308Z,37.15
2019-05-05T09:42:14.465Z,36.49
2019-05-05T09:43:14.707Z,35.49
2019-05-05T09:44:13.568Z,35.02
2019-05-05T09:45:13.958Z,35.42
2019-05-05T09:46:14.329Z,35.51
2019-05-05T09:47:13.625Z,34.95
2019-05-05T09:48:13.887Z,34.55
2019-05-05T09:49:14.037Z,33.7
2019-05-05T09:50:27.770Z,34.49
2019-05-05T09:51:13.663Z,33.26
2019-05-05T09:52:13.937Z,34.65
2019-05-05T09:53:14.501Z,35.48
2019-05-05T09:54:17.412Z,35.94
2019-05-05T09:55:13.808Z,36.98
2019-05-05T09:56:14.533Z,37.45
2019-05-05T09:57:14.465Z,37.45
2019-05-05T09:58:13.777Z,37.34
2019-05-05T09:59:13.529Z,38.26
2019-05-05T10:00:13.958Z,38.17
2019-05-05T10:02:13.407Z,39.1
2019-05-05T10:03:14.450Z,39.96
2019-05-05T10:04:13.889Z,39.31
2019-05-05T10:05:28.149Z,39.2
2019-05-05T10:06:14.209Z,38.64
2019-05-05T10:07:13.789Z,39.22
2019-05-05T10:08:14.233Z,38.26
2019-05-05T10:09:13.833Z,37.13
2019-05-05T10:10:13.838Z,37.97
2019-05-05T10:11:16.315Z,37.49
2019-05-05T10:12:13.406Z,38.64
2019-05-05T10:13:14.855Z,38.76
2019-05-05T10:14:14.296Z,39.25
2019-05-05T10:15:16.246Z,39.83
2019-05-05T10:16:14.262Z,39.64
2019-05-05T10:18:14.154Z,37.3
2019-05-05T10:19:14.004Z,36.07
2019-05-05T10:20:14.499Z,35.32
2019-05-05T10:21:17.802Z,34.75
2019-05-05T10:22:14.754Z,32.07
2019-05-05T10:23:14.317Z,32.23
2019-05-05T10:24:31.057Z,32.41
2019-05-05T10:25:13.976Z,33.25
2019-05-05T10:26:14.894Z,33.83
2019-05-05T10:27:14.018Z,33.45
2019-05-05T10:28:15.920Z,33.72
2019-05-05T10:29:16.063Z,33.64
2019-05-05T10:30:14.337Z,33.83
2019-05-05T10:31:16.148Z,33.08
2019-05-05T10:33:16.596Z,33.72
2019-05-05T10:34:15.991Z,34.2
2019-05-05T10:35:14.360Z,34.1
2019-05-05T10:36:16.217Z,33.35
2019-05-05T10:37:28.932Z,33.81
2019-05-05T10:38:16.648Z,34.39
2019-05-05T10:39:14.325Z,34.67
2019-05-05T10:40:14.340Z,35.06
2019-05-05T10:41:15.950Z,35.46
2019-05-05T10:42:16.873Z,35.35
2019-05-05T10:43:14.787Z,35.69
2019-05-05T10:44:16.507Z,37.02
2019-05-05T10:45:15.996Z,37.21
2019-05-05T10:46:16.742Z,37.49
2019-05-05T10:47:16.175Z,37.38
2019-05-05T10:48:16.783Z,37.28
2019-05-05T10:49:16.170Z,37.19
2019-05-05T10:50:16.357Z,37.38
2019-05-05T10:51:14.608Z,37.38
2019-05-05T10:52:16.696Z,37.84
2019-05-05T10:53:29.322Z,38.41
2019-05-05T10:54:16.585Z,38.7
2019-05-05T10:55:16.921Z,38.53
2019-05-05T10:56:16.186Z,37.66
2019-05-05T10:57:18.389Z,37.38
2019-05-05T10:58:16.280Z,37.66
2019-05-05T10:59:14.800Z,37.38
2019-05-05T11:00:17.834Z,36.99
2019-05-05T11:01:16.867Z,36.33
2019-05-05T11:02:16.548Z,37.28
2019-05-05T11:03:17.183Z,37.85
2019-05-05T11:04:16.052Z,37.28
2019-05-05T11:05:14.941Z,37.38
2019-05-05T11:07:17.036Z,36.99
2019-05-05T11:08:16.153Z,37.28
2019-05-05T11:09:29.699Z,37.28
2019-05-05T11:10:16.617Z,37.19
2019-05-05T11:11:16.152Z,37.09
2019-05-05T11:12:16.774Z,36.9
2019-05-05T11:13:15.138Z,37.36
2019-05-05T11:14:16.689Z,37.74
2019-05-05T11:15:16.657Z,37.26
2019-05-05T11:16:16.967Z,37.07
2019-05-05T11:17:16.933Z,38.14
2019-05-05T11:18:17.122Z,37.3
2019-05-05T11:19:16.141Z,36.46
2019-05-05T11:20:16.898Z,35.79
2019-05-05T11:21:16.939Z,34.66
2019-05-05T11:22:17.203Z,34.75
2019-05-05T11:23:17.483Z,33.04
2019-05-05T11:24:17.094Z,32.18
2019-05-05T11:25:30.071Z,31.9
2019-05-05T11:26:16.756Z,32.28
2019-05-05T11:27:15.205Z,33.43
2019-05-05T11:28:15.484Z,34.67
2019-05-05T11:29:16.057Z,36.19
2019-05-05T11:30:16.777Z,35.83
2019-05-05T11:31:16.165Z,36.02
2019-05-05T11:33:16.719Z,36.61
2019-05-05T11:34:16.544Z,35
2019-05-05T11:35:16.358Z,34.14
2019-05-05T11:36:16.104Z,33.75
2019-05-05T11:37:15.437Z,34.31
2019-05-05T11:38:16.623Z,34.02
2019-05-05T11:39:17.287Z,34.94
2019-05-05T11:40:30.423Z,35.24
2019-05-05T11:41:16.845Z,34.94
2019-05-05T11:43:16.715Z,36.27
2019-05-05T11:44:17.664Z,35.61
2019-05-05T11:45:17.331Z,34.85
2019-05-05T11:46:16.579Z,34.93
2019-05-05T11:47:16.450Z,35.31
2019-05-05T11:49:16.453Z,35.12
2019-05-05T11:51:17.589Z,34.83
2019-05-05T11:52:15.789Z,34.93
2019-05-05T11:53:17.013Z,34.75
2019-05-05T11:54:16.548Z,34.28
2019-05-05T11:55:17.496Z,33.61
2019-05-05T11:56:17.079Z,32.46
2019-05-05T11:57:15.904Z,32.55
2019-05-05T11:58:16.879Z,32.73
2019-05-05T11:59:16.861Z,32.75
2019-05-05T12:00:16.618Z,32.57
2019-05-05T12:01:16.455Z,34.1
2019-05-05T12:02:16.510Z,34.22
2019-05-05T12:03:16.950Z,33.27
2019-05-05T12:04:17.055Z,32.89
2019-05-05T12:05:16.554Z,32.21
2019-05-05T12:06:17.211Z,32.2
2019-05-05T12:07:17.094Z,32.1
2019-05-05T12:08:17.148Z,31.99
2019-05-05T12:09:16.499Z,32.44
2019-05-05T12:10:16.462Z,32.62
2019-05-05T12:11:17.528Z,33.95
2019-05-05T12:12:31.169Z,33.69
2019-05-05T12:13:17.257Z,33.22
2019-05-05T12:15:16.580Z,32.76
2019-05-05T12:16:16.356Z,33.14
2019-05-05T12:17:16.620Z,32.38
2019-05-05T12:18:16.905Z,33.24
2019-05-05T12:19:16.667Z,32.67
2019-05-05T12:20:16.690Z,32.65
2019-05-05T12:21:16.716Z,33.12
2019-05-05T12:22:16.735Z,33.7
2019-05-05T12:23:16.762Z,34.06
2019-05-05T12:24:16.826Z,34.83
2019-05-05T12:25:30.066Z,36.27
2019-05-05T12:26:16.856Z,36.27
2019-05-05T12:27:16.603Z,36.47
2019-05-05T12:28:31.542Z,36.77
2019-05-05T12:29:16.903Z,37.23
2019-05-05T12:30:16.926Z,36.94
2019-05-05T12:31:16.945Z,37.05
2019-05-05T12:33:16.989Z,37.41
2019-05-05T12:34:17.014Z,36.77
2019-05-05T12:35:17.296Z,36.94
2019-05-05T12:37:16.835Z,37.13
2019-05-05T12:38:17.105Z,37.04
2019-05-05T12:39:17.130Z,36.75
2019-05-05T12:40:17.154Z,36.46
2019-05-05T12:41:17.392Z,36.59
2019-05-05T12:42:16.948Z,35.92
2019-05-05T12:43:17.224Z,34.69
2019-05-05T12:44:33.896Z,34.29
2019-05-05T12:45:17.323Z,34.98
2019-05-05T12:46:17.287Z,35.27
2019-05-05T12:47:17.312Z,34.14
2019-05-05T12:48:17.335Z,33.75
2019-05-05T12:49:17.375Z,33.27
2019-05-05T12:50:17.382Z,32.98
2019-05-05T12:51:17.411Z,33.27
2019-05-05T12:52:17.429Z,33.17
2019-05-05T12:53:17.452Z,34.04
2019-05-05T12:55:17.496Z,35.06
2019-05-05T12:57:17.547Z,35.33
2019-05-05T12:58:17.567Z,35.71
2019-05-05T12:59:17.592Z,36.19
2019-05-05T13:00:32.278Z,36.86
2019-05-05T13:01:17.637Z,37.24
2019-05-05T13:02:17.413Z,37.41
2019-05-05T13:03:17.685Z,38.26
2019-05-05T13:04:17.716Z,39.12
2019-05-05T13:05:17.728Z,38.56
2019-05-05T13:06:17.752Z,39.96
2019-05-05T13:07:17.783Z,40.44
2019-05-05T13:08:17.815Z,41.38
2019-05-05T13:09:17.829Z,41.56
2019-05-05T13:10:17.844Z,41.97
2019-05-05T13:11:17.866Z,41.87
2019-05-05T13:13:17.913Z,40.84
2019-05-05T13:14:17.936Z,39.6
2019-05-05T13:15:33.878Z,40.36
2019-05-05T13:16:18.084Z,40.26
2019-05-05T13:17:17.756Z,40.36
2019-05-05T13:18:18.030Z,40.55
2019-05-05T13:19:18.053Z,40.84
2019-05-05T13:20:18.088Z,40.92
2019-05-05T13:21:18.095Z,41.51
2019-05-05T13:22:18.121Z,40.46
2019-05-05T13:23:18.141Z,40.94
2019-05-05T13:24:18.266Z,40.26
2019-05-05T13:26:18.234Z,41.58
2019-05-05T13:27:24.676Z,41.49
2019-05-05T13:28:18.257Z,41.2
2019-05-05T13:29:18.281Z,41.78
2019-05-05T13:30:18.299Z,41.78
2019-05-05T13:31:18.324Z,42.25
2019-05-05T13:32:18.095Z,43.02
2019-05-05T13:33:18.367Z,42.16
2019-05-05T13:34:18.400Z,41.97
2019-05-05T13:35:18.413Z,41.56
2019-05-05T13:36:18.434Z,41.95
2019-05-05T13:37:18.458Z,41.83
2019-05-05T13:38:18.484Z,42.88
2019-05-05T13:41:18.546Z,43.29